createdAt,value
2017-12-16T00:00:10.281Z,93472.19
2017-12-16T00:02:38.687Z,93472.11
2017-12-16T00:05:07.017Z,93475.66
2017-12-16T00:07:35.531Z,93475.80
2017-12-16T00:10:03.855Z,93478.13
2017-12-16T00:12:32.199Z,93477.41
2017-12-16T00:15:00.527Z,93476.69
2017-12-16T00:17:28.879Z,93479.92
2017-12-16T00:19:57.250Z,93482.54
2017-12-16T00:22:25.591Z,93477.06
2017-12-16T00:24:53.986Z,93477.72
2017-12-16T00:27:22.335Z,93478.84
2017-12-16T00:29:50.679Z,93479.87
2017-12-16T00:32:19.031Z,93481.08
2017-12-16T00:34:47.374Z,93475.97
2017-12-16T00:37:15.698Z,93479.74
2017-12-16T00:39:44.050Z,93480.80
2017-12-16T00:42:12.392Z,93482.96
2017-12-16T00:44:40.767Z,93491.48
2017-12-16T00:47:09.093Z,93492.28
2017-12-16T00:49:37.433Z,93492.41
2017-12-16T00:52:05.774Z,93503.41
2017-12-16T00:54:34.139Z,93503.21
2017-12-16T00:57:02.517Z,93506.94
2017-12-16T00:59:30.859Z,93504.50
2017-12-16T01:01:59.190Z,93503.73
2017-12-16T01:04:27.544Z,93510.45
2017-12-16T01:06:55.880Z,93515.22
2017-12-16T01:09:24.255Z,93517.68
2017-12-16T01:11:52.582Z,93517.64
2017-12-16T01:14:20.919Z,93528.63
2017-12-16T01:16:49.263Z,93531.85
2017-12-16T01:19:17.595Z,93530.64
2017-12-16T01:21:46.155Z,93535.67
2017-12-16T01:24:14.486Z,93541.38
2017-12-16T01:26:42.841Z,93543.81
2017-12-16T01:29:11.188Z,93553.63
2017-12-16T01:31:39.583Z,93551.82
2017-12-16T01:34:19.554Z,93559.25
2017-12-16T01:36:59.680Z,93562.59
2017-12-16T01:39:28.050Z,93567.87
2017-12-16T01:41:56.373Z,93571.13
2017-12-16T01:44:24.721Z,93571.50
2017-12-16T01:46:53.056Z,93582.95
2017-12-16T01:49:21.403Z,93581.58
2017-12-16T01:51:49.783Z,93582.22
2017-12-16T01:54:18.115Z,93581.14
2017-12-16T01:56:46.465Z,93585.73
2017-12-16T01:59:14.807Z,93580.83
2017-12-16T02:01:43.189Z,93577.76
2017-12-16T02:04:11.563Z,93586.20
2017-12-16T02:06:39.903Z,93590.55
2017-12-16T02:09:08.251Z,93588.15
2017-12-16T02:11:36.596Z,93588.59
2017-12-16T02:14:04.974Z,93594.56
2017-12-16T02:16:33.370Z,93596.14
2017-12-16T02:19:01.721Z,93592.67
2017-12-16T02:21:30.065Z,93594.52
2017-12-16T02:23:58.435Z,93598.09
2017-12-16T02:26:26.811Z,93606.08
2017-12-16T02:28:55.211Z,93597.64
2017-12-16T02:31:23.564Z,93602.89
2017-12-16T02:33:51.938Z,93607.75
2017-12-16T02:36:20.273Z,93604.03
2017-12-16T02:38:48.714Z,93608.44
2017-12-16T02:41:17.107Z,93615.74
2017-12-16T02:43:45.446Z,93612.15
2017-12-16T02:46:13.791Z,93611.31
2017-12-16T02:48:42.163Z,93608.58
2017-12-16T02:51:10.512Z,93610.11
2017-12-16T02:53:38.894Z,93612.06
2017-12-16T02:56:07.249Z,93607.45
2017-12-16T02:58:35.624Z,93605.32
2017-12-16T03:01:03.966Z,93611.33
2017-12-16T03:03:32.336Z,93611.34
2017-12-16T03:06:00.727Z,93617.97
2017-12-16T03:08:29.084Z,93610.64
2017-12-16T03:10:57.456Z,93610.84
2017-12-16T03:13:25.836Z,93609.16
2017-12-16T03:15:54.186Z,93613.73
2017-12-16T03:18:22.572Z,93612.63
2017-12-16T03:20:50.950Z,93620.04
2017-12-16T03:23:19.301Z,93614.93
2017-12-16T03:25:47.672Z,93615.93
2017-12-16T03:28:16.023Z,93622.78
2017-12-16T03:30:44.450Z,93619.79
2017-12-16T03:33:12.799Z,93622.53
2017-12-16T03:35:41.159Z,93622.90
2017-12-16T03:38:09.515Z,93623.73
2017-12-16T03:40:37.897Z,93628.00
2017-12-16T03:43:06.272Z,93634.98
2017-12-16T03:45:34.621Z,93633.50
2017-12-16T03:48:02.977Z,93643.52
2017-12-16T03:50:31.354Z,93643.39
2017-12-16T03:55:34.238Z,93651.41
2017-12-16T03:58:02.598Z,93655.41
2017-12-16T04:00:32.439Z,93657.12
2017-12-16T04:03:00.788Z,93666.47
2017-12-16T04:05:29.270Z,93658.89
2017-12-16T04:07:57.618Z,93663.36
2017-12-16T04:10:25.966Z,93665.69
2017-12-16T04:12:54.324Z,93671.96
2017-12-16T04:15:22.679Z,93677.61
2017-12-16T04:17:51.060Z,93671.51
2017-12-16T04:20:19.462Z,93677.72
2017-12-16T04:22:47.782Z,93676.86
2017-12-16T04:25:16.151Z,93674.78
2017-12-16T04:27:44.507Z,93676.70
2017-12-16T04:30:12.978Z,93670.95
2017-12-16T04:32:41.336Z,93677.45
2017-12-16T04:35:09.684Z,93677.12
2017-12-16T04:37:38.029Z,93676.20
2017-12-16T04:40:06.401Z,93680.83
2017-12-16T04:42:34.794Z,93679.86
2017-12-16T04:45:03.143Z,93684.86
2017-12-16T04:47:31.494Z,93681.57
2017-12-16T04:49:59.835Z,93684.88
2017-12-16T04:52:28.186Z,93690.20
2017-12-16T04:54:56.560Z,93688.02
2017-12-16T04:57:24.912Z,93690.35
2017-12-16T04:59:53.274Z,93698.96
2017-12-16T05:02:21.627Z,93694.91
2017-12-16T05:04:49.984Z,93699.76
2017-12-16T05:07:18.390Z,93693.47
2017-12-16T05:09:46.746Z,93692.75
2017-12-16T05:12:15.148Z,93697.54
2017-12-16T05:14:43.510Z,93698.09
2017-12-16T05:17:11.879Z,93701.20
2017-12-16T05:19:40.232Z,93704.36
2017-12-16T05:22:08.590Z,93703.60
2017-12-16T05:24:37.000Z,93701.74
2017-12-16T05:27:05.358Z,93701.14
2017-12-16T05:29:33.714Z,93702.55
2017-12-16T05:32:02.079Z,93703.70
2017-12-16T05:34:30.432Z,93705.11
2017-12-16T05:36:58.833Z,93715.81
2017-12-16T05:39:27.179Z,93715.57
2017-12-16T05:41:55.523Z,93721.63
2017-12-16T05:44:23.929Z,93721.39
2017-12-16T05:46:52.287Z,93727.98
2017-12-16T05:49:20.654Z,93723.58
2017-12-16T05:51:49.015Z,93731.86
2017-12-16T05:54:17.383Z,93733.55
2017-12-16T05:56:45.742Z,93733.86
2017-12-16T05:59:14.101Z,93736.91
2017-12-16T06:01:42.482Z,93742.41
2017-12-16T06:04:10.842Z,93741.60
2017-12-16T06:06:39.203Z,93742.56
2017-12-16T06:09:07.563Z,93745.64
2017-12-16T06:11:35.920Z,93749.91
2017-12-16T06:14:04.435Z,93749.06
2017-12-16T06:16:32.786Z,93756.88
2017-12-16T06:19:01.146Z,93759.67
2017-12-16T06:21:29.510Z,93761.30
2017-12-16T06:23:57.876Z,93762.84
2017-12-16T06:26:26.261Z,93766.64
2017-12-16T06:28:54.611Z,93772.36
2017-12-16T06:31:22.963Z,93769.05
2017-12-16T06:33:51.306Z,93769.11
2017-12-16T06:36:19.666Z,93777.14
2017-12-16T06:38:48.139Z,93776.41
2017-12-16T06:41:16.490Z,93771.84
2017-12-16T06:43:44.842Z,93776.52
2017-12-16T06:46:13.194Z,93789.05
2017-12-16T06:48:41.552Z,93789.66
2017-12-16T06:51:09.930Z,93802.03
2017-12-16T06:53:38.272Z,93803.28
2017-12-16T06:56:06.643Z,93795.84
2017-12-16T06:58:35.013Z,93801.09
2017-12-16T07:01:03.370Z,93800.26
2017-12-16T07:03:31.762Z,93805.86
2017-12-16T07:06:00.101Z,93806.73
2017-12-16T07:08:28.469Z,93822.34
2017-12-16T07:10:56.809Z,93816.53
2017-12-16T07:13:25.194Z,93823.36
2017-12-16T07:15:53.584Z,93826.42
2017-12-16T07:18:21.946Z,93833.75
2017-12-16T07:20:50.311Z,93832.58
2017-12-16T07:23:18.672Z,93845.84
2017-12-16T07:25:47.067Z,93842.77
2017-12-16T07:28:15.471Z,93851.39
2017-12-16T07:30:43.916Z,93852.15
2017-12-16T07:33:12.366Z,93858.64
2017-12-16T07:35:40.723Z,93855.75
2017-12-16T07:38:09.079Z,93856.59
2017-12-16T07:40:37.465Z,93856.39
2017-12-16T07:43:05.831Z,93855.31
2017-12-16T07:45:34.189Z,93857.81
2017-12-16T07:48:02.545Z,93869.70
2017-12-16T07:50:30.891Z,93867.33
2017-12-16T07:52:59.294Z,93876.95
2017-12-16T07:55:27.646Z,93869.73
2017-12-16T07:57:56.017Z,93878.23
2017-12-16T08:00:24.374Z,93881.88
2017-12-16T08:02:52.734Z,93880.28
2017-12-16T08:05:21.118Z,93879.77
2017-12-16T08:07:49.485Z,93884.22
2017-12-16T08:10:17.842Z,93891.02
2017-12-16T08:12:46.222Z,93898.34
2017-12-16T08:15:14.585Z,93905.14
2017-12-16T08:17:43.005Z,93905.50
2017-12-16T08:20:11.368Z,93903.07
2017-12-16T08:22:39.754Z,93910.72
2017-12-16T08:25:08.111Z,93914.84
2017-12-16T08:27:36.467Z,93925.44
2017-12-16T08:30:04.841Z,93928.82
2017-12-16T08:32:33.213Z,93929.62
2017-12-16T08:35:01.625Z,93933.77
2017-12-16T08:37:29.979Z,93941.75
2017-12-16T08:39:58.345Z,93943.17
2017-12-16T08:42:26.888Z,93947.08
2017-12-16T08:44:55.251Z,93947.98
2017-12-16T08:47:23.655Z,93957.98
2017-12-16T08:49:52.031Z,93966.29
2017-12-16T08:52:20.391Z,93970.90
2017-12-16T08:54:48.763Z,93972.08
2017-12-16T08:57:17.126Z,93978.28
2017-12-16T08:59:45.508Z,93979.37
2017-12-16T09:02:13.876Z,93977.88
2017-12-16T09:04:42.240Z,93989.17
2017-12-16T09:07:10.705Z,93976.80
2017-12-16T09:09:39.069Z,93987.64
2017-12-16T09:12:07.438Z,93992.30
2017-12-16T09:14:35.786Z,94003.56
2017-12-16T09:17:04.190Z,94008.05
2017-12-16T09:19:32.542Z,94009.61
2017-12-16T09:22:00.899Z,94014.70
2017-12-16T09:24:29.256Z,94016.09
2017-12-16T09:26:57.677Z,94018.37
2017-12-16T09:29:26.084Z,94017.84
2017-12-16T09:31:54.428Z,94018.35
2017-12-16T09:34:22.783Z,94025.30
2017-12-16T09:36:51.161Z,94024.24
2017-12-16T09:39:19.510Z,94029.38
2017-12-16T09:41:47.898Z,94021.94
2017-12-16T09:44:16.286Z,94027.05
2017-12-16T09:46:44.687Z,94034.28
2017-12-16T09:49:13.039Z,94031.84
2017-12-16T09:51:41.412Z,94029.86
2017-12-16T09:54:09.771Z,94032.67
2017-12-16T09:56:38.144Z,94037.69
2017-12-16T09:59:06.539Z,94029.44
2017-12-16T10:01:34.897Z,94039.66
2017-12-16T10:04:03.263Z,94040.14
2017-12-16T10:06:31.614Z,94045.31
2017-12-16T10:08:59.971Z,94044.06
2017-12-16T10:11:28.341Z,94045.77
2017-12-16T10:13:56.691Z,94041.16
2017-12-16T10:16:25.101Z,94047.48
2017-12-16T10:18:53.450Z,94051.22
2017-12-16T10:21:21.810Z,94051.66
2017-12-16T10:23:50.160Z,94058.80
2017-12-16T10:26:18.529Z,94060.77
2017-12-16T10:28:46.927Z,94059.03
2017-12-16T10:31:15.277Z,94065.34
2017-12-16T10:33:43.635Z,94072.27
2017-12-16T10:36:11.970Z,94074.79
2017-12-16T10:38:40.343Z,94061.95
2017-12-16T10:41:08.722Z,94072.45
2017-12-16T10:43:37.096Z,94071.61
2017-12-16T10:46:05.452Z,94076.02
2017-12-16T10:48:33.825Z,94078.09
2017-12-16T10:51:02.222Z,94078.08
2017-12-16T10:53:30.704Z,94087.11
2017-12-16T10:55:59.067Z,94086.87
2017-12-16T10:58:27.428Z,94091.08
2017-12-16T11:00:55.780Z,94093.53
2017-12-16T11:03:24.160Z,94088.91
2017-12-16T11:05:52.551Z,94090.29
2017-12-16T11:08:20.948Z,94086.87
2017-12-16T11:10:49.308Z,94082.58
2017-12-16T11:13:17.679Z,94094.81
2017-12-16T11:15:46.032Z,94082.84
2017-12-16T11:18:14.436Z,94090.98
2017-12-16T11:20:42.793Z,94083.91
2017-12-16T11:23:11.153Z,94093.61
2017-12-16T11:25:39.501Z,94094.70
2017-12-16T11:28:07.876Z,94104.76
2017-12-16T11:30:36.266Z,94098.28
2017-12-16T11:33:04.620Z,94101.36
2017-12-16T11:35:33.005Z,94106.36
2017-12-16T11:38:01.353Z,94103.49
2017-12-16T11:40:29.704Z,94103.67
2017-12-16T11:42:58.098Z,94107.36
2017-12-16T11:45:26.481Z,94115.03
2017-12-16T11:47:54.830Z,94113.88
2017-12-16T11:50:23.178Z,94114.11
2017-12-16T11:52:51.530Z,94118.16
2017-12-16T11:55:19.941Z,94122.98
2017-12-16T11:57:48.315Z,94115.30
2017-12-16T12:00:16.652Z,94114.96
2017-12-16T12:02:45.009Z,94119.80
2017-12-16T12:05:13.356Z,94112.81
2017-12-16T12:07:41.821Z,94114.35
2017-12-16T12:10:10.193Z,94112.84
2017-12-16T12:12:38.564Z,94124.92
2017-12-16T12:15:06.909Z,94124.13
2017-12-16T12:17:35.267Z,94124.46
2017-12-16T12:20:03.669Z,94122.44
2017-12-16T12:22:32.019Z,94132.91
2017-12-16T12:25:00.371Z,94125.45
2017-12-16T12:27:28.759Z,94134.54
2017-12-16T12:29:57.313Z,94142.63
2017-12-16T12:32:25.665Z,94148.13
2017-12-16T12:34:54.013Z,94148.95
2017-12-16T12:37:22.364Z,94144.98
2017-12-16T12:39:51.735Z,94147.69
2017-12-16T12:42:20.124Z,94147.58
2017-12-16T12:44:48.658Z,94146.52
2017-12-16T12:47:16.991Z,94143.56
2017-12-16T12:49:45.356Z,94150.34
2017-12-16T12:52:13.694Z,94154.73
2017-12-16T12:54:42.262Z,94148.64
2017-12-16T12:57:10.634Z,94161.41
2017-12-16T12:59:38.993Z,94159.40
2017-12-16T13:02:07.526Z,94168.32
2017-12-16T13:04:35.890Z,94165.96
2017-12-16T13:07:04.294Z,94163.88
2017-12-16T13:09:32.648Z,94164.84
2017-12-16T13:12:01.016Z,94166.27
2017-12-16T13:14:30.233Z,94168.92
2017-12-16T13:16:58.588Z,94176.77
2017-12-16T13:19:27.089Z,94172.93
2017-12-16T13:21:55.450Z,94176.23
2017-12-16T13:24:23.797Z,94169.44
2017-12-16T13:26:52.170Z,94169.73
2017-12-16T13:29:20.548Z,94172.22
2017-12-16T13:31:48.953Z,94179.69
2017-12-16T13:34:17.297Z,94173.83
2017-12-16T13:36:45.662Z,94181.88
2017-12-16T13:39:14.013Z,94188.20
2017-12-16T13:41:42.375Z,94192.58
2017-12-16T13:44:10.774Z,94187.52
2017-12-16T13:46:39.122Z,94190.50
2017-12-16T13:49:07.478Z,94190.42
2017-12-16T13:51:35.855Z,94189.12
2017-12-16T13:54:04.201Z,94193.86
2017-12-16T13:56:32.595Z,94190.52
2017-12-16T13:59:00.952Z,94189.36
2017-12-16T14:01:29.319Z,94196.73
2017-12-16T14:03:57.683Z,94198.73
2017-12-16T14:06:26.131Z,94200.56
2017-12-16T14:08:54.499Z,94201.44
2017-12-16T14:11:22.859Z,94204.05
2017-12-16T14:13:51.236Z,94202.33
2017-12-16T14:16:19.608Z,94199.31
2017-12-16T14:18:48.041Z,94211.23
2017-12-16T14:21:16.433Z,94214.03
2017-12-16T14:23:44.771Z,94224.20
2017-12-16T14:26:13.132Z,94230.58
2017-12-16T14:28:41.486Z,94224.66
2017-12-16T14:31:09.851Z,94225.20
2017-12-16T14:33:38.230Z,94239.45
2017-12-16T14:36:06.596Z,94232.63
2017-12-16T14:38:34.949Z,94242.44
2017-12-16T14:41:03.298Z,94252.69
2017-12-16T14:43:31.662Z,94245.59
2017-12-16T14:46:00.032Z,94256.22
2017-12-16T14:48:28.426Z,94256.17
2017-12-16T14:50:56.772Z,94266.05
2017-12-16T14:53:25.224Z,94261.89
2017-12-16T14:55:53.607Z,94262.69
2017-12-16T14:58:22.003Z,94262.41
2017-12-16T15:00:50.357Z,94265.10
2017-12-16T15:03:18.710Z,94262.95
2017-12-16T15:05:47.112Z,94264.09
2017-12-16T15:08:15.458Z,94269.03
2017-12-16T15:10:43.942Z,94265.41
2017-12-16T15:13:12.514Z,94276.50
2017-12-16T15:15:41.206Z,94268.09
2017-12-16T15:18:09.679Z,94278.91
2017-12-16T15:20:38.323Z,94275.84
2017-12-16T15:23:06.972Z,94275.89
2017-12-16T15:25:35.616Z,94283.47
2017-12-16T15:28:04.168Z,94286.87
2017-12-16T15:30:32.758Z,94293.94
2017-12-16T15:33:01.196Z,94300.41
2017-12-16T15:35:32.546Z,94294.50
2017-12-16T15:38:00.947Z,94303.79
2017-12-16T15:40:29.295Z,94296.91
2017-12-16T15:42:57.667Z,94306.15
2017-12-16T15:45:26.026Z,94302.64
2017-12-16T15:47:54.524Z,94306.09
2017-12-16T15:50:22.883Z,94317.60
2017-12-16T15:52:51.222Z,94319.01
2017-12-16T15:55:19.581Z,94323.23
2017-12-16T15:57:47.938Z,94331.95
2017-12-16T16:00:16.475Z,94334.83
2017-12-16T16:02:44.842Z,94335.63
2017-12-16T16:05:13.191Z,94339.52
2017-12-16T16:07:41.587Z,94339.86
2017-12-16T16:10:09.953Z,94341.03
2017-12-16T16:12:38.444Z,94352.80
2017-12-16T16:15:06.854Z,94353.64
2017-12-16T16:17:35.209Z,94354.45
2017-12-16T16:20:03.598Z,94359.48
2017-12-16T16:22:31.985Z,94368.23
2017-12-16T16:25:00.407Z,94366.00
2017-12-16T16:27:28.917Z,94363.25
2017-12-16T16:29:57.400Z,94370.73
2017-12-16T16:32:25.739Z,94367.87
2017-12-16T16:34:54.091Z,94380.50
2017-12-16T16:37:22.526Z,94379.47
2017-12-16T16:39:51.771Z,94382.98
2017-12-16T16:42:20.121Z,94388.40
2017-12-16T16:44:48.475Z,94387.07
2017-12-16T16:47:16.844Z,94393.56
2017-12-16T16:49:45.264Z,94393.86
2017-12-16T16:52:13.643Z,94399.09
2017-12-16T16:54:42.388Z,94390.62
2017-12-16T16:57:10.741Z,94394.94
2017-12-16T16:59:39.088Z,94398.72
2017-12-16T17:02:08.240Z,94400.97
2017-12-16T17:04:36.605Z,94403.38
2017-12-16T17:07:04.942Z,94409.28
2017-12-16T17:09:33.300Z,94410.82
2017-12-16T17:12:01.706Z,94414.48
2017-12-16T17:14:30.145Z,94417.77
2017-12-16T17:16:58.508Z,94429.69
2017-12-16T17:19:26.859Z,94424.69
2017-12-16T17:21:55.211Z,94427.75
2017-12-16T17:24:23.618Z,94434.30
2017-12-16T17:26:52.005Z,94438.12
2017-12-16T17:29:20.376Z,94441.20
2017-12-16T17:31:48.726Z,94439.52
2017-12-16T17:34:17.081Z,94443.70
2017-12-16T17:36:45.431Z,94450.50
2017-12-16T17:39:13.812Z,94448.30
2017-12-16T17:41:42.175Z,94445.52
2017-12-16T17:44:10.541Z,94443.84
2017-12-16T17:46:38.912Z,94446.50
2017-12-16T17:49:07.294Z,94446.11
2017-12-16T17:51:35.679Z,94446.94
2017-12-16T17:54:04.072Z,94449.42
2017-12-16T17:56:32.449Z,94455.38
2017-12-16T17:59:00.807Z,94467.39
2017-12-16T18:01:29.149Z,94454.09
2017-12-16T18:03:57.551Z,94451.53
2017-12-16T18:06:25.913Z,94452.67
2017-12-16T18:08:54.264Z,94462.52
2017-12-16T18:11:22.615Z,94459.89
2017-12-16T18:13:51.037Z,94464.89
2017-12-16T18:16:19.425Z,94474.45
2017-12-16T18:18:47.754Z,94484.02
2017-12-16T18:21:16.110Z,94483.55
2017-12-16T18:23:44.496Z,94489.66
2017-12-16T18:26:12.854Z,94491.30
2017-12-16T18:28:41.223Z,94496.20
2017-12-16T18:31:09.574Z,94492.80
2017-12-16T18:33:37.942Z,94498.32
2017-12-16T18:36:06.286Z,94495.50
2017-12-16T18:38:34.638Z,94493.38
2017-12-16T18:41:03.025Z,94492.04
2017-12-16T18:43:31.377Z,94500.94
2017-12-16T18:45:59.725Z,94494.94
2017-12-16T18:48:28.070Z,94496.62
2017-12-16T18:50:56.442Z,94503.15
2017-12-16T18:53:24.851Z,94503.22
2017-12-16T18:55:53.198Z,94502.30
2017-12-16T18:58:21.547Z,94504.53
2017-12-16T19:00:49.907Z,94504.41
2017-12-16T19:03:18.350Z,94510.25
2017-12-16T19:05:46.719Z,94514.30
2017-12-16T19:08:15.163Z,94524.09
2017-12-16T19:10:43.507Z,94538.16
2017-12-16T19:13:11.855Z,94544.41
2017-12-16T19:15:40.213Z,94549.13
2017-12-16T19:18:08.612Z,94548.45
2017-12-16T19:20:36.974Z,94551.78
2017-12-16T19:23:05.326Z,94554.92
2017-12-16T19:25:33.808Z,94561.23
2017-12-16T19:28:02.168Z,94563.30
2017-12-16T19:30:30.514Z,94569.71
2017-12-16T19:32:58.854Z,94568.64
2017-12-16T19:35:27.213Z,94576.45
2017-12-16T19:37:55.584Z,94570.54
2017-12-16T19:40:23.940Z,94570.89
2017-12-16T19:42:52.278Z,94576.14
2017-12-16T19:45:20.633Z,94577.13
2017-12-16T19:47:48.980Z,94574.11
2017-12-16T19:50:17.371Z,94569.13
2017-12-16T19:52:45.714Z,94578.02
2017-12-16T19:55:14.068Z,94575.56
2017-12-16T19:57:42.421Z,94565.16
2017-12-16T20:00:10.757Z,94574.42
2017-12-16T20:02:39.132Z,94579.84
2017-12-16T20:05:07.475Z,94572.42
2017-12-16T20:07:35.889Z,94580.65
2017-12-16T20:10:04.234Z,94581.45
2017-12-16T20:12:32.577Z,94589.06
2017-12-16T20:15:01.053Z,94585.77
2017-12-16T20:17:29.397Z,94585.70
2017-12-16T20:19:57.747Z,94589.80
2017-12-16T20:22:26.090Z,94590.93
2017-12-16T20:24:54.444Z,94595.11
2017-12-16T20:27:22.815Z,94588.25
2017-12-16T20:29:51.198Z,94599.80
2017-12-16T20:32:19.559Z,94594.64
2017-12-16T20:34:47.918Z,94604.84
2017-12-16T20:37:16.256Z,94599.01
2017-12-16T20:39:44.653Z,94590.78
2017-12-16T20:42:13.013Z,94587.08
2017-12-16T20:44:41.375Z,94595.28
2017-12-16T20:47:09.714Z,94604.77
2017-12-16T20:49:38.056Z,94621.51
2017-12-16T20:52:06.395Z,94614.08
2017-12-16T20:54:34.767Z,94625.66
2017-12-16T20:57:03.143Z,94616.56
2017-12-16T21:02:10.725Z,94613.11
2017-12-16T21:04:39.347Z,94615.94
2017-12-16T21:07:07.738Z,94621.91
2017-12-16T21:09:36.098Z,94624.80
2017-12-16T21:12:04.475Z,94625.76
2017-12-16T21:14:32.838Z,94626.39
2017-12-16T21:17:01.190Z,94632.11
2017-12-16T21:19:29.546Z,94628.95
2017-12-16T21:21:57.897Z,94630.59
2017-12-16T21:24:26.270Z,94634.67
2017-12-16T21:26:54.625Z,94638.51
2017-12-16T21:29:22.970Z,94642.70
2017-12-16T21:31:52.255Z,94649.74
2017-12-16T21:34:20.615Z,94655.67
2017-12-16T21:36:48.997Z,94646.00
2017-12-16T21:39:17.432Z,94657.84
2017-12-16T21:41:45.840Z,94657.69
2017-12-16T21:44:14.228Z,94668.02
2017-12-16T21:46:43.491Z,94661.10
2017-12-16T21:49:11.896Z,94662.67
2017-12-16T21:51:40.260Z,94664.27
2017-12-16T21:54:08.655Z,94667.20
2017-12-16T21:56:37.010Z,94672.60
2017-12-16T21:59:05.403Z,94677.75
2017-12-16T22:01:33.776Z,94682.94
2017-12-16T22:04:02.121Z,94687.90
2017-12-16T22:06:30.503Z,94691.45
2017-12-16T22:08:58.841Z,94685.81
2017-12-16T22:11:27.182Z,94687.53
2017-12-16T22:13:55.563Z,94695.20
2017-12-16T22:16:23.919Z,94696.06
2017-12-16T22:18:52.316Z,94697.34
2017-12-16T22:21:20.668Z,94697.08
2017-12-16T22:23:49.011Z,94698.67
2017-12-16T22:26:17.499Z,94708.29
2017-12-16T22:28:45.846Z,94705.16
2017-12-16T22:31:14.199Z,94708.55
2017-12-16T22:33:42.558Z,94699.80
2017-12-16T22:36:10.911Z,94714.05
2017-12-16T22:38:39.404Z,94714.89
2017-12-16T22:41:07.766Z,94715.83
2017-12-16T22:43:36.136Z,94716.63
2017-12-16T22:46:04.510Z,94716.95
2017-12-16T22:48:32.871Z,94717.84
2017-12-16T22:51:01.256Z,94722.88
2017-12-16T22:53:29.603Z,94722.56
2017-12-16T22:55:57.960Z,94717.26
2017-12-16T22:58:26.310Z,94711.99
2017-12-16T23:00:54.666Z,94724.41
2017-12-16T23:03:23.056Z,94720.55
2017-12-16T23:05:51.670Z,94718.66
2017-12-16T23:08:20.265Z,94715.57
2017-12-16T23:10:49.087Z,94717.04
2017-12-16T23:13:17.649Z,94717.06
2017-12-16T23:15:48.751Z,94718.59
2017-12-16T23:18:17.427Z,94716.48
2017-12-16T23:20:45.972Z,94715.08
2017-12-16T23:23:14.557Z,94719.34
2017-12-16T23:25:43.027Z,94722.05
2017-12-16T23:28:11.441Z,94720.70
2017-12-16T23:30:39.786Z,94725.15
2017-12-16T23:33:08.139Z,94729.09
2017-12-16T23:35:36.478Z,94737.30
2017-12-16T23:38:04.835Z,94734.72
2017-12-16T23:40:33.178Z,94732.83
2017-12-16T23:43:01.748Z,94737.80
2017-12-16T23:45:30.142Z,94744.70
2017-12-16T23:47:58.476Z,94749.56
2017-12-16T23:50:26.826Z,94743.95
2017-12-16T23:52:55.272Z,94744.69
2017-12-16T23:55:23.616Z,94745.59
2017-12-16T23:57:51.963Z,94744.81
